Time,TemperatureF,DewpointF,PressureIn,WindDirection,WindDirectionDegrees,WindSpeedMPH,WindSpeedGustMPH,Humidity,HourlyPrecipIn,Conditions,Clouds,dailyrainin,SoftwareType,DateUTC
2013-08-16 00:00:00,64.0,64.0,29.88,North,0,0.0,0.0,99,0.00,,,0.00,,2013-08-16 07:00:00,
2013-08-16 00:11:00,64.0,64.0,29.88,North,0,0.0,0.0,99,0.00,,,0.00,,2013-08-16 07:11:00,
2013-08-16 00:42:00,61.0,61.0,29.88,North,0,0.0,0.0,99,0.00,,,0.00,,2013-08-16 07:42:00,
2013-08-16 00:52:00,61.0,61.0,29.88,North,0,0.0,0.0,99,0.00,,,0.00,,2013-08-16 07:52:00,
2013-08-16 01:11:00,60.0,60.0,29.88,North,0,0.0,0.0,99,0.00,,,0.00,,2013-08-16 08:11:00,
2013-08-16 01:21:00,60.0,60.0,29.88,North,0,0.0,0.0,99,0.00,,,0.00,,2013-08-16 08:21:00,
2013-08-16 01:31:00,60.0,60.0,29.88,North,0,0.0,0.0,99,0.00,,,0.00,,2013-08-16 08:31:00,
2013-08-16 01:41:00,60.0,60.0,29.88,North,0,0.0,0.0,99,0.00,,,0.00,,2013-08-16 08:41:00,
2013-08-16 01:52:00,59.0,59.0,29.88,North,0,0.0,0.0,99,0.00,,,0.00,,2013-08-16 08:52:00,
2013-08-16 02:11:00,59.0,59.0,29.87,North,0,0.0,0.0,99,0.00,,,0.00,,2013-08-16 09:11:00,
2013-08-16 02:21:00,59.0,59.0,29.87,North,0,0.0,0.0,99,0.00,,,0.00,,2013-08-16 09:21:00,
2013-08-16 02:42:00,58.0,58.0,29.87,North,0,0.0,0.0,99,0.00,,,0.00,,2013-08-16 09:42:00,
2013-08-16 02:53:00,58.0,58.0,29.87,North,0,0.0,0.0,99,0.00,,,0.00,,2013-08-16 09:53:00,
2013-08-16 03:03:00,58.0,58.0,29.87,North,0,0.0,0.0,99,0.00,,,0.00,,2013-08-16 10:03:00,
2013-08-16 03:13:00,58.0,58.0,29.87,North,0,0.0,0.0,99,0.00,,,0.00,,2013-08-16 10:13:00,
2013-08-16 03:23:00,58.0,58.0,29.87,North,0,0.0,0.0,99,0.00,,,0.00,,2013-08-16 10:23:00,
2013-08-16 03:33:00,58.0,58.0,29.87,North,0,0.0,0.0,99,0.00,,,0.00,,2013-08-16 10:33:00,
2013-08-16 03:42:00,58.0,58.0,29.87,North,0,0.0,0.0,99,0.00,,,0.00,,2013-08-16 10:42:00,
2013-08-16 03:52:00,58.0,58.0,29.87,North,0,0.0,0.0,99,0.00,,,0.00,,2013-08-16 10:52:00,
2013-08-16 04:12:00,58.0,58.0,29.87,North,0,0.0,2.0,99,0.00,,,0.00,,2013-08-16 11:12:00,
2013-08-16 04:21:00,58.0,58.0,29.88,North,0,0.0,2.0,99,0.00,,,0.00,,2013-08-16 11:21:00,
2013-08-16 04:32:00,58.0,58.0,29.88,North,0,0.0,2.0,99,0.00,,,0.00,,2013-08-16 11:32:00,
2013-08-16 04:42:00,58.0,58.0,29.88,North,0,0.0,2.0,99,0.00,,,0.00,,2013-08-16 11:42:00,
2013-08-16 04:52:00,58.0,58.0,29.87,North,0,0.0,0.0,99,0.00,,,0.00,,2013-08-16 11:52:00,
2013-08-16 05:12:00,58.0,58.0,29.87,North,0,0.0,0.0,99,0.00,,,0.00,,2013-08-16 12:12:00,
2013-08-16 05:21:00,57.0,57.0,29.87,North,0,0.0,0.0,99,0.00,,,0.00,,2013-08-16 12:21:00,
2013-08-16 05:41:00,57.0,57.0,29.88,North,0,0.0,1.0,99,0.00,,,0.00,,2013-08-16 12:41:00,
2013-08-16 05:52:00,57.0,57.0,29.88,North,0,0.0,1.0,99,0.00,,,0.00,,2013-08-16 12:52:00,
2013-08-16 06:11:00,57.0,57.0,29.88,North,0,0.0,1.0,99,0.00,,,0.00,,2013-08-16 13:11:00,
2013-08-16 06:42:00,56.0,56.0,29.88,North,0,0.0,0.0,99,0.00,,,0.00,,2013-08-16 13:42:00,
2013-08-16 06:53:00,56.0,56.0,29.88,North,0,0.0,0.0,99,0.00,,,0.00,,2013-08-16 13:53:00,
2013-08-16 07:11:00,56.0,56.0,29.89,North,0,0.0,0.0,99,0.00,,,0.00,,2013-08-16 14:11:00,
2013-08-16 07:22:00,57.0,57.0,29.89,North,0,0.0,0.0,99,0.00,,,0.00,,2013-08-16 14:22:00,
2013-08-16 07:41:00,58.0,58.0,29.89,North,0,0.0,0.0,99,0.00,,,0.00,,2013-08-16 14:41:00,
2013-08-16 07:52:00,58.0,58.0,29.90,North,0,0.0,0.0,99,0.00,,,0.00,,2013-08-16 14:52:00,
2013-08-16 08:12:00,59.0,59.0,29.90,NNW,341,0.0,2.0,99,0.00,,,0.00,,2013-08-16 15:12:00,
2013-08-16 08:22:00,59.0,59.0,29.91,NNE,17,0.0,2.0,99,0.00,,,0.00,,2013-08-16 15:22:00,
2013-08-16 08:43:00,59.0,59.0,29.91,North,0,0.0,2.0,99,0.00,,,0.00,,2013-08-16 15:43:00,
2013-08-16 08:56:00,59.0,59.0,29.91,North,0,0.0,2.0,99,0.00,,,0.00,,2013-08-16 15:56:00,
2013-08-16 09:13:00,59.0,59.0,29.92,North,0,0.0,2.0,99,0.00,,,0.00,,2013-08-16 16:13:00,
2013-08-16 09:23:00,59.0,59.0,29.91,North,0,0.0,2.0,99,0.00,,,0.00,,2013-08-16 16:23:00,
2013-08-16 09:34:00,59.0,59.0,29.91,North,0,0.0,2.0,99,0.00,,,0.00,,2013-08-16 16:34:00,
2013-08-16 09:43:00,59.0,59.0,29.91,North,0,0.0,2.0,99,0.00,,,0.00,,2013-08-16 16:43:00,
2013-08-16 09:57:00,59.0,59.0,29.92,North,0,0.0,2.0,99,0.00,,,0.00,,2013-08-16 16:57:00,
2013-08-16 10:12:00,59.0,59.0,29.91,North,0,0.0,2.0,99,0.00,,,0.00,,2013-08-16 17:12:00,
2013-08-16 10:28:00,59.0,59.0,29.91,North,0,0.0,2.0,99,0.00,,,0.00,,2013-08-16 17:28:00,
2013-08-16 10:47:00,59.0,59.0,29.91,North,0,0.0,2.0,99,0.00,,,0.00,,2013-08-16 17:47:00,
2013-08-16 11:00:00,59.0,59.0,29.91,North,0,0.0,2.0,99,0.00,,,0.00,,2013-08-16 18:00:00,
2013-08-16 11:15:00,59.0,59.0,29.91,North,0,0.0,2.0,99,0.00,,,0.00,,2013-08-16 18:15:00,
2013-08-16 11:28:00,59.0,59.0,29.91,North,0,0.0,2.0,99,0.00,,,0.00,,2013-08-16 18:28:00,
2013-08-16 11:30:00,77.0,68.0,29.90,NW,318,4.0,5.0,74,0.00,,,0.00,,2013-08-16 18:30:00,
2013-08-16 11:50:00,-999.0,-99.9,29.90,North,0,0.0,2.0,99,0.00,,,0.00,,2013-08-16 18:50:00,
2013-08-16 12:14:00,77.0,68.0,29.90,NW,318,4.0,5.0,74,0.00,,,0.00,,2013-08-16 19:14:00,
2013-08-16 12:25:00,77.0,68.0,29.90,NW,318,4.0,5.0,74,0.00,,,0.00,,2013-08-16 19:25:00,
2013-08-16 12:55:00,76.0,67.0,29.90,West,270,4.0,10.0,73,0.00,,,0.00,,2013-08-16 19:55:00,
2013-08-16 13:11:00,74.0,66.0,29.90,WNW,291,4.0,9.0,76,0.00,,,0.00,,2013-08-16 20:11:00,
2013-08-16 13:23:00,74.0,66.0,29.90,WNW,297,4.0,9.0,75,0.00,,,0.00,,2013-08-16 20:23:00,
2013-08-16 13:44:00,73.0,66.0,29.90,WNW,302,4.0,7.0,78,0.00,,,0.00,,2013-08-16 20:44:00,
2013-08-16 13:52:00,73.0,66.0,29.90,WNW,302,4.0,7.0,78,0.00,,,0.00,,2013-08-16 20:52:00,
2013-08-16 14:11:00,76.0,67.0,29.89,NW,304,3.0,8.0,73,0.00,,,0.00,,2013-08-16 21:11:00,
2013-08-16 14:25:00,76.0,67.0,29.89,WNW,284,3.0,8.0,73,0.00,,,0.00,,2013-08-16 21:25:00,
2013-08-16 14:40:00,-999.0,-99.9,29.89,WNW,284,4.0,8.0,-999,0.00,,,0.00,,2013-08-16 21:40:00,
2013-08-16 14:53:00,75.0,65.0,29.89,West,261,4.0,8.0,71,0.00,,,0.00,,2013-08-16 21:53:00,
2013-08-16 15:13:00,76.0,65.0,29.89,North,350,3.0,8.0,70,0.00,,,0.00,,2013-08-16 22:13:00,
2013-08-16 15:24:00,75.0,65.0,29.88,WSW,257,3.0,9.0,70,0.00,,,0.00,,2013-08-16 22:24:00,
2013-08-16 15:33:00,75.0,65.0,29.88,WSW,257,3.0,9.0,70,0.00,,,0.00,,2013-08-16 22:33:00,
2013-08-16 15:43:00,75.0,65.0,29.88,WSW,257,3.0,9.0,70,0.00,,,0.00,,2013-08-16 22:43:00,
2013-08-16 15:52:00,73.0,64.0,29.89,NW,324,2.0,8.0,74,0.00,,,0.00,,2013-08-16 22:52:00,
2013-08-16 16:12:00,73.0,64.0,29.88,NNW,345,1.0,8.0,73,0.00,,,0.00,,2013-08-16 23:12:00,
2013-08-16 16:23:00,74.0,63.0,29.88,NE,43,1.0,5.0,69,0.00,,,0.00,,2013-08-16 23:23:00,
2013-08-16 16:42:00,74.0,63.0,29.88,NE,45,1.0,2.0,69,0.00,,,0.00,,2013-08-16 23:42:00,
2013-08-16 16:52:00,74.0,63.0,29.88,NE,45,1.0,2.0,69,0.00,,,0.00,,2013-08-16 23:52:00,
2013-08-16 17:11:00,72.0,63.0,29.88,North,1,2.0,6.0,73,0.00,,,0.00,,2013-08-17 00:11:00,
2013-08-16 17:21:00,71.0,63.0,29.88,NW,311,2.0,6.0,76,0.00,,,0.00,,2013-08-17 00:21:00,
2013-08-16 17:41:00,71.0,62.0,29.88,North,359,1.0,8.0,74,0.00,,,0.00,,2013-08-17 00:41:00,
2013-08-16 17:52:00,73.0,62.0,29.88,NE,35,1.0,7.0,68,0.00,,,0.00,,2013-08-17 00:52:00,
2013-08-16 18:01:00,73.0,62.0,29.88,NE,35,1.0,7.0,68,0.00,,,0.00,,2013-08-17 01:01:00,
2013-08-16 18:11:00,73.0,62.0,29.88,NE,35,1.0,7.0,68,0.00,,,0.00,,2013-08-17 01:11:00,
2013-08-16 18:21:00,70.0,62.0,29.87,NE,53,1.0,5.0,75,0.00,,,0.00,,2013-08-17 01:21:00,
2013-08-16 18:42:00,70.0,62.0,29.87,ENE,70,1.0,5.0,76,0.00,,,0.00,,2013-08-17 01:42:00,
2013-08-16 18:52:00,70.0,62.0,29.87,ENE,70,1.0,5.0,76,0.00,,,0.00,,2013-08-17 01:52:00,
2013-08-16 19:11:00,69.0,61.0,29.87,NE,49,0.0,2.0,77,0.00,,,0.00,,2013-08-17 02:11:00,
2013-08-16 19:21:00,66.0,60.0,29.88,NE,43,0.0,4.0,81,0.00,,,0.00,,2013-08-17 02:21:00,
2013-08-16 19:42:00,65.0,61.0,29.88,North,0,0.0,2.0,86,0.00,,,0.00,,2013-08-17 02:42:00,
2013-08-16 19:52:00,63.0,60.0,29.88,NE,43,1.0,4.0,90,0.00,,,0.00,,2013-08-17 02:52:00,
2013-08-16 20:01:00,63.0,60.0,29.88,NE,43,1.0,4.0,90,0.00,,,0.00,,2013-08-17 03:01:00,
2013-08-16 20:11:00,63.0,60.0,29.88,NE,43,1.0,4.0,90,0.00,,,0.00,,2013-08-17 03:11:00,
2013-08-16 20:21:00,62.0,61.0,29.89,NE,56,0.0,3.0,95,0.00,,,0.00,,2013-08-17 03:21:00,
2013-08-16 20:43:00,62.0,61.0,29.89,NE,56,0.0,6.0,95,0.00,,,0.00,,2013-08-17 03:43:00,
2013-08-16 20:53:00,62.0,61.0,29.89,NE,45,0.0,3.0,97,0.00,,,0.00,,2013-08-17 03:53:00,
2013-08-16 21:03:00,62.0,61.0,29.89,NE,45,0.0,3.0,97,0.00,,,0.00,,2013-08-17 04:03:00,
2013-08-16 21:12:00,62.0,61.0,29.89,NE,45,0.0,3.0,97,0.00,,,0.00,,2013-08-17 04:12:00,
2013-08-16 21:23:00,61.0,61.0,29.91,NE,45,0.0,2.0,99,0.00,,,0.00,,2013-08-17 04:23:00,
2013-08-16 21:44:00,61.0,61.0,29.90,ENE,59,0.0,4.0,99,0.00,,,0.00,,2013-08-17 04:44:00,
2013-08-16 21:53:00,61.0,61.0,29.90,ENE,59,0.0,4.0,99,0.00,,,0.00,,2013-08-17 04:53:00,
2013-08-16 22:03:00,61.0,61.0,29.90,ENE,59,0.0,4.0,99,0.00,,,0.00,,2013-08-17 05:03:00,
2013-08-16 22:12:00,61.0,61.0,29.90,ENE,59,0.0,4.0,99,0.00,,,0.00,,2013-08-17 05:12:00,
2013-08-16 22:23:00,61.0,61.0,29.91,North,0,0.0,0.0,99,0.00,,,0.00,,2013-08-17 05:23:00,
2013-08-16 22:32:00,61.0,61.0,29.91,North,0,0.0,0.0,99,0.00,,,0.00,,2013-08-17 05:32:00,
2013-08-16 22:42:00,61.0,61.0,29.91,North,0,0.0,0.0,99,0.00,,,0.00,,2013-08-17 05:42:00,
2013-08-16 22:52:00,60.0,60.0,29.91,North,0,0.0,1.0,99,0.00,,,0.00,,2013-08-17 05:52:00,
2013-08-16 23:01:00,60.0,60.0,29.91,North,0,0.0,1.0,99,0.00,,,0.00,,2013-08-17 06:01:00,
2013-08-16 23:12:00,60.0,60.0,29.91,North,0,0.0,1.0,99,0.00,,,0.00,,2013-08-17 06:12:00,
2013-08-16 23:21:00,60.0,60.0,29.91,North,0,0.0,1.0,99,0.00,,,0.00,,2013-08-17 06:21:00,
2013-08-16 23:42:00,60.0,60.0,29.91,North,0,0.0,1.0,99,0.00,,,0.00,,2013-08-17 06:42:00,
2013-08-16 23:52:00,60.0,60.0,29.91,North,0,0.0,1.0,99,0.00,,,0.00,,2013-08-17 06:52:00,